Terminal Aerodrome Forecast
Issued by NWS Tampa Bay Area, FL

Home | Current Version | Previous Version | Text Only | Print | Product List | Glossary On
Versions: 1 2 3 4 5 6 7 8 9 10 11 12
000
FTUS42 KTBW 212300
TAFFMY
TAF
KFMY 212334Z 2200/2224 31005KT P6SM VCTS SCT030CB BKN250
     FM220100 VRB04KT P6SM FEW035 SCT250
     FM221800 33005KT P6SM VCTS FEW035CB SCT250
     FM222200 29007KT P6SM VCTS SCT035CB BKN250=

USA.gov is the U.S. government's official web portal to all federal, state and local government web resources and services.